sensor_id;sensor_type;location;lat;lon;timestamp;temperature;humidity
22629;DHT22;11481;53.694;9.910;2022-08-25T00:00:10;24.60;99.90
22629;DHT22;11481;53.694;9.910;2022-08-25T00:02:37;24.60;99.90
22629;DHT22;11481;53.694;9.910;2022-08-25T00:05:04;24.50;99.90
22629;DHT22;11481;53.694;9.910;2022-08-25T00:07:32;24.50;99.90
22629;DHT22;11481;53.694;9.910;2022-08-25T00:09:59;24.60;99.90
22629;DHT22;11481;53.694;9.910;2022-08-25T00:12:26;24.60;99.90
22629;DHT22;11481;53.694;9.910;2022-08-25T00:14:52;24.60;99.90
22629;DHT22;11481;53.694;9.910;2022-08-25T00:17:20;24.60;99.90
22629;DHT22;11481;53.694;9.910;2022-08-25T00:19:47;24.60;99.90
22629;DHT22;11481;53.694;9.910;2022-08-25T00:22:13;24.60;99.90
22629;DHT22;11481;53.694;9.910;2022-08-25T00:24:40;24.50;99.90
22629;DHT22;11481;53.694;9.910;2022-08-25T00:27:06;24.50;99.90
22629;DHT22;11481;53.694;9.910;2022-08-25T00:29:33;24.50;99.90
22629;DHT22;11481;53.694;9.910;2022-08-25T00:32:04;24.50;99.90
22629;DHT22;11481;53.694;9.910;2022-08-25T00:34:35;24.50;99.90
22629;DHT22;11481;53.694;9.910;2022-08-25T00:37:04;24.40;99.90
22629;DHT22;11481;53.694;9.910;2022-08-25T00:39:32;24.30;99.90
22629;DHT22;11481;53.694;9.910;2022-08-25T00:41:59;24.30;99.90
22629;DHT22;11481;53.694;9.910;2022-08-25T00:44:28;24.20;99.90
22629;DHT22;11481;53.694;9.910;2022-08-25T00:46:57;24.20;99.90
22629;DHT22;11481;53.694;9.910;2022-08-25T00:49:29;24.10;99.90
22629;DHT22;11481;53.694;9.910;2022-08-25T00:52:24;24.10;99.90
22629;DHT22;11481;53.694;9.910;2022-08-25T00:55:01;24.00;99.90
22629;DHT22;11481;53.694;9.910;2022-08-25T00:57:38;24.00;99.90
22629;DHT22;11481;53.694;9.910;2022-08-25T01:00:11;23.90;99.90
22629;DHT22;11481;53.694;9.910;2022-08-25T01:02:38;23.80;99.90
22629;DHT22;11481;53.694;9.910;2022-08-25T01:05:06;23.80;99.90
22629;DHT22;11481;53.694;9.910;2022-08-25T01:07:33;23.80;99.90
22629;DHT22;11481;53.694;9.910;2022-08-25T01:10:11;23.80;99.90
22629;DHT22;11481;53.694;9.910;2022-08-25T01:12:40;23.80;99.90
22629;DHT22;11481;53.694;9.910;2022-08-25T01:15:25;23.80;99.90
22629;DHT22;11481;53.694;9.910;2022-08-25T01:17:56;23.70;99.90
22629;DHT22;11481;53.694;9.910;2022-08-25T01:20:27;23.70;99.90
22629;DHT22;11481;53.694;9.910;2022-08-25T01:22:56;23.70;99.90
22629;DHT22;11481;53.694;9.910;2022-08-25T01:28:08;23.60;99.90
22629;DHT22;11481;53.694;9.910;2022-08-25T01:30:38;23.70;99.90
22629;DHT22;11481;53.694;9.910;2022-08-25T01:33:08;23.90;99.90
22629;DHT22;11481;53.694;9.910;2022-08-25T01:35:39;23.60;99.90
22629;DHT22;11481;53.694;9.910;2022-08-25T01:38:21;23.80;99.90
22629;DHT22;11481;53.694;9.910;2022-08-25T01:41:02;23.50;99.90
22629;DHT22;11481;53.694;9.910;2022-08-25T01:43:36;23.40;99.90
22629;DHT22;11481;53.694;9.910;2022-08-25T01:46:04;23.70;99.90
22629;DHT22;11481;53.694;9.910;2022-08-25T01:48:31;23.40;99.90
22629;DHT22;11481;53.694;9.910;2022-08-25T01:50:58;23.20;99.90
22629;DHT22;11481;53.694;9.910;2022-08-25T01:53:29;23.20;99.90
22629;DHT22;11481;53.694;9.910;2022-08-25T01:56:28;23.10;99.90
22629;DHT22;11481;53.694;9.910;2022-08-25T01:58:55;23.10;99.90
22629;DHT22;11481;53.694;9.910;2022-08-25T02:01:23;23.10;99.90
22629;DHT22;11481;53.694;9.910;2022-08-25T02:03:51;23.10;99.90
22629;DHT22;11481;53.694;9.910;2022-08-25T02:06:23;23.20;99.90
22629;DHT22;11481;53.694;9.910;2022-08-25T02:08:58;23.10;99.90
22629;DHT22;11481;53.694;9.910;2022-08-25T02:11:26;23.10;99.90
22629;DHT22;11481;53.694;9.910;2022-08-25T02:13:53;23.00;99.90
22629;DHT22;11481;53.694;9.910;2022-08-25T02:16:24;23.00;99.90
22629;DHT22;11481;53.694;9.910;2022-08-25T02:18:54;23.00;99.90
22629;DHT22;11481;53.694;9.910;2022-08-25T02:21:21;22.90;99.90
22629;DHT22;11481;53.694;9.910;2022-08-25T02:23:51;22.90;99.90
22629;DHT22;11481;53.694;9.910;2022-08-25T02:26:19;22.90;99.90
22629;DHT22;11481;53.694;9.910;2022-08-25T02:28:46;22.80;99.90
22629;DHT22;11481;53.694;9.910;2022-08-25T02:31:14;22.70;99.90
22629;DHT22;11481;53.694;9.910;2022-08-25T02:33:42;22.70;99.90
22629;DHT22;11481;53.694;9.910;2022-08-25T02:36:08;22.50;99.90
22629;DHT22;11481;53.694;9.910;2022-08-25T02:38:36;22.50;99.90
22629;DHT22;11481;53.694;9.910;2022-08-25T02:41:13;22.40;99.90
22629;DHT22;11481;53.694;9.910;2022-08-25T02:43:42;22.30;99.90
22629;DHT22;11481;53.694;9.910;2022-08-25T02:46:10;22.20;99.90
22629;DHT22;11481;53.694;9.910;2022-08-25T02:48:38;22.20;99.90
22629;DHT22;11481;53.694;9.910;2022-08-25T02:51:06;22.20;99.90
22629;DHT22;11481;53.694;9.910;2022-08-25T02:53:35;22.20;99.90
22629;DHT22;11481;53.694;9.910;2022-08-25T02:56:10;22.10;99.90
22629;DHT22;11481;53.694;9.910;2022-08-25T02:58:38;22.20;99.90
22629;DHT22;11481;53.694;9.910;2022-08-25T03:01:05;22.10;99.90
22629;DHT22;11481;53.694;9.910;2022-08-25T03:03:33;22.10;99.90
22629;DHT22;11481;53.694;9.910;2022-08-25T03:06:07;22.10;99.90
22629;DHT22;11481;53.694;9.910;2022-08-25T03:08:35;22.00;99.90
22629;DHT22;11481;53.694;9.910;2022-08-25T03:11:03;22.00;99.90
22629;DHT22;11481;53.694;9.910;2022-08-25T03:13:31;21.90;99.90
22629;DHT22;11481;53.694;9.910;2022-08-25T03:16:02;22.00;99.90
22629;DHT22;11481;53.694;9.910;2022-08-25T03:18:30;22.00;99.90
22629;DHT22;11481;53.694;9.910;2022-08-25T03:20:57;22.00;99.90
22629;DHT22;11481;53.694;9.910;2022-08-25T03:23:24;22.00;99.90
22629;DHT22;11481;53.694;9.910;2022-08-25T03:25:53;21.90;99.90
22629;DHT22;11481;53.694;9.910;2022-08-25T03:28:39;21.80;99.90
22629;DHT22;11481;53.694;9.910;2022-08-25T03:31:08;21.90;99.90
22629;DHT22;11481;53.694;9.910;2022-08-25T03:33:35;21.90;99.90
22629;DHT22;11481;53.694;9.910;2022-08-25T03:36:02;21.90;99.90
22629;DHT22;11481;53.694;9.910;2022-08-25T03:38:28;21.90;99.90
22629;DHT22;11481;53.694;9.910;2022-08-25T03:40:55;21.90;99.90
22629;DHT22;11481;53.694;9.910;2022-08-25T03:43:22;21.80;99.90
22629;DHT22;11481;53.694;9.910;2022-08-25T03:45:49;21.80;99.90
22629;DHT22;11481;53.694;9.910;2022-08-25T03:48:16;21.80;99.90
22629;DHT22;11481;53.694;9.910;2022-08-25T03:50:46;21.70;99.90
22629;DHT22;11481;53.694;9.910;2022-08-25T03:53:17;21.70;99.90
22629;DHT22;11481;53.694;9.910;2022-08-25T03:55:44;21.60;99.90
22629;DHT22;11481;53.694;9.910;2022-08-25T03:58:11;21.70;99.90
22629;DHT22;11481;53.694;9.910;2022-08-25T04:00:38;21.60;99.90
22629;DHT22;11481;53.694;9.910;2022-08-25T04:03:04;21.60;99.90
22629;DHT22;11481;53.694;9.910;2022-08-25T04:05:31;21.50;99.90
22629;DHT22;11481;53.694;9.910;2022-08-25T04:07:59;21.50;99.90
22629;DHT22;11481;53.694;9.910;2022-08-25T04:10:28;21.50;99.90
22629;DHT22;11481;53.694;9.910;2022-08-25T04:12:55;21.50;99.90
22629;DHT22;11481;53.694;9.910;2022-08-25T04:15:22;21.40;99.90
22629;DHT22;11481;53.694;9.910;2022-08-25T04:17:55;21.40;99.90
22629;DHT22;11481;53.694;9.910;2022-08-25T04:20:24;21.30;99.90
22629;DHT22;11481;53.694;9.910;2022-08-25T04:22:50;21.30;99.90
22629;DHT22;11481;53.694;9.910;2022-08-25T04:25:17;21.30;99.90
22629;DHT22;11481;53.694;9.910;2022-08-25T04:27:44;21.30;99.90
22629;DHT22;11481;53.694;9.910;2022-08-25T04:30:11;21.20;99.90
22629;DHT22;11481;53.694;9.910;2022-08-25T04:32:38;21.20;99.90
22629;DHT22;11481;53.694;9.910;2022-08-25T04:35:04;21.20;99.90
22629;DHT22;11481;53.694;9.910;2022-08-25T04:37:31;21.20;99.90
22629;DHT22;11481;53.694;9.910;2022-08-25T04:39:58;21.20;99.90
22629;DHT22;11481;53.694;9.910;2022-08-25T04:42:25;21.20;99.90
22629;DHT22;11481;53.694;9.910;2022-08-25T04:44:52;21.20;99.90
22629;DHT22;11481;53.694;9.910;2022-08-25T04:47:20;21.30;99.90
22629;DHT22;11481;53.694;9.910;2022-08-25T04:49:47;21.30;99.90
22629;DHT22;11481;53.694;9.910;2022-08-25T04:52:14;21.30;99.90
22629;DHT22;11481;53.694;9.910;2022-08-25T04:54:41;21.30;99.90
22629;DHT22;11481;53.694;9.910;2022-08-25T04:57:08;21.40;99.90
22629;DHT22;11481;53.694;9.910;2022-08-25T04:59:34;21.30;99.90
22629;DHT22;11481;53.694;9.910;2022-08-25T05:02:01;21.30;99.90
22629;DHT22;11481;53.694;9.910;2022-08-25T05:04:30;21.30;99.90
22629;DHT22;11481;53.694;9.910;2022-08-25T05:06:57;21.30;99.90
22629;DHT22;11481;53.694;9.910;2022-08-25T05:09:25;21.30;99.90
22629;DHT22;11481;53.694;9.910;2022-08-25T05:11:52;21.30;99.90
22629;DHT22;11481;53.694;9.910;2022-08-25T05:14:21;21.30;99.90
22629;DHT22;11481;53.694;9.910;2022-08-25T05:16:55;21.20;99.90
22629;DHT22;11481;53.694;9.910;2022-08-25T05:19:23;21.10;99.90
22629;DHT22;11481;53.694;9.910;2022-08-25T05:21:51;21.10;99.90
22629;DHT22;11481;53.694;9.910;2022-08-25T05:24:18;21.00;99.90
22629;DHT22;11481;53.694;9.910;2022-08-25T05:26:45;21.00;99.90
22629;DHT22;11481;53.694;9.910;2022-08-25T05:29:12;20.90;99.90
22629;DHT22;11481;53.694;9.910;2022-08-25T05:31:39;20.90;99.90
22629;DHT22;11481;53.694;9.910;2022-08-25T05:34:11;20.80;99.90
22629;DHT22;11481;53.694;9.910;2022-08-25T05:36:38;20.80;99.90
22629;DHT22;11481;53.694;9.910;2022-08-25T05:39:08;20.80;99.90
22629;DHT22;11481;53.694;9.910;2022-08-25T05:41:36;20.80;99.90
22629;DHT22;11481;53.694;9.910;2022-08-25T05:44:03;20.70;99.90
22629;DHT22;11481;53.694;9.910;2022-08-25T05:46:30;20.70;99.90
22629;DHT22;11481;53.694;9.910;2022-08-25T05:48:59;20.70;99.90
22629;DHT22;11481;53.694;9.910;2022-08-25T05:51:26;20.70;99.90
22629;DHT22;11481;53.694;9.910;2022-08-25T05:53:53;20.70;99.90
22629;DHT22;11481;53.694;9.910;2022-08-25T05:56:20;20.70;99.90
22629;DHT22;11481;53.694;9.910;2022-08-25T05:58:46;20.70;99.90
22629;DHT22;11481;53.694;9.910;2022-08-25T06:01:26;20.70;99.90
22629;DHT22;11481;53.694;9.910;2022-08-25T06:04:12;20.70;99.90
22629;DHT22;11481;53.694;9.910;2022-08-25T06:06:39;20.60;99.90
22629;DHT22;11481;53.694;9.910;2022-08-25T06:09:06;20.60;99.90
22629;DHT22;11481;53.694;9.910;2022-08-25T06:11:36;20.60;99.90
22629;DHT22;11481;53.694;9.910;2022-08-25T06:14:07;20.70;99.90
22629;DHT22;11481;53.694;9.910;2022-08-25T06:16:34;20.70;99.90
22629;DHT22;11481;53.694;9.910;2022-08-25T06:19:00;20.70;99.90
22629;DHT22;11481;53.694;9.910;2022-08-25T06:21:27;20.80;99.90
22629;DHT22;11481;53.694;9.910;2022-08-25T06:23:54;20.80;99.90
22629;DHT22;11481;53.694;9.910;2022-08-25T06:26:22;20.80;99.90
22629;DHT22;11481;53.694;9.910;2022-08-25T06:28:49;20.80;99.90
22629;DHT22;11481;53.694;9.910;2022-08-25T06:31:19;20.80;99.90
22629;DHT22;11481;53.694;9.910;2022-08-25T06:33:48;20.90;99.90
22629;DHT22;11481;53.694;9.910;2022-08-25T06:36:15;20.90;99.90
22629;DHT22;11481;53.694;9.910;2022-08-25T06:38:42;20.90;99.90
22629;DHT22;11481;53.694;9.910;2022-08-25T06:41:09;20.90;99.90
22629;DHT22;11481;53.694;9.910;2022-08-25T06:43:41;21.00;99.90
22629;DHT22;11481;53.694;9.910;2022-08-25T06:46:18;21.00;99.90
22629;DHT22;11481;53.694;9.910;2022-08-25T06:48:45;21.10;99.90
22629;DHT22;11481;53.694;9.910;2022-08-25T06:51:14;21.10;99.90
22629;DHT22;11481;53.694;9.910;2022-08-25T06:53:42;21.10;99.90
22629;DHT22;11481;53.694;9.910;2022-08-25T06:56:09;21.10;99.90
22629;DHT22;11481;53.694;9.910;2022-08-25T06:58:36;21.10;99.90
22629;DHT22;11481;53.694;9.910;2022-08-25T07:01:18;21.10;99.90
22629;DHT22;11481;53.694;9.910;2022-08-25T07:03:49;21.10;99.90
22629;DHT22;11481;53.694;9.910;2022-08-25T07:06:18;21.20;99.90
22629;DHT22;11481;53.694;9.910;2022-08-25T07:08:46;21.20;99.90
22629;DHT22;11481;53.694;9.910;2022-08-25T07:11:14;21.20;99.90
22629;DHT22;11481;53.694;9.910;2022-08-25T07:13:43;21.20;99.90
22629;DHT22;11481;53.694;9.910;2022-08-25T07:16:11;21.10;99.90
22629;DHT22;11481;53.694;9.910;2022-08-25T07:18:38;21.10;99.90
22629;DHT22;11481;53.694;9.910;2022-08-25T07:21:05;21.10;99.90
22629;DHT22;11481;53.694;9.910;2022-08-25T07:23:35;21.10;99.90
22629;DHT22;11481;53.694;9.910;2022-08-25T07:28:52;21.10;99.90
22629;DHT22;11481;53.694;9.910;2022-08-25T07:31:20;21.10;99.90
22629;DHT22;11481;53.694;9.910;2022-08-25T07:33:54;21.10;99.90
22629;DHT22;11481;53.694;9.910;2022-08-25T07:36:42;21.10;99.90
22629;DHT22;11481;53.694;9.910;2022-08-25T07:39:09;21.20;99.90
22629;DHT22;11481;53.694;9.910;2022-08-25T07:41:38;21.20;99.90
22629;DHT22;11481;53.694;9.910;2022-08-25T07:44:05;21.30;99.90
22629;DHT22;11481;53.694;9.910;2022-08-25T07:46:33;21.20;99.90
22629;DHT22;11481;53.694;9.910;2022-08-25T07:48:59;21.30;99.90
22629;DHT22;11481;53.694;9.910;2022-08-25T07:51:27;21.40;99.90
22629;DHT22;11481;53.694;9.910;2022-08-25T07:53:55;21.40;99.90
22629;DHT22;11481;53.694;9.910;2022-08-25T07:56:22;21.40;99.90
22629;DHT22;11481;53.694;9.910;2022-08-25T07:58:49;21.40;99.90
22629;DHT22;11481;53.694;9.910;2022-08-25T08:01:18;21.40;99.90
22629;DHT22;11481;53.694;9.910;2022-08-25T08:03:47;21.40;99.90
22629;DHT22;11481;53.694;9.910;2022-08-25T08:06:19;21.30;99.90
22629;DHT22;11481;53.694;9.910;2022-08-25T08:08:47;21.40;99.90
22629;DHT22;11481;53.694;9.910;2022-08-25T08:11:23;21.40;99.90
22629;DHT22;11481;53.694;9.910;2022-08-25T08:13:52;21.40;99.90
22629;DHT22;11481;53.694;9.910;2022-08-25T08:16:21;21.50;99.90
22629;DHT22;11481;53.694;9.910;2022-08-25T08:18:49;21.50;99.90
22629;DHT22;11481;53.694;9.910;2022-08-25T08:21:19;21.50;99.90
22629;DHT22;11481;53.694;9.910;2022-08-25T08:23:49;21.50;99.90
22629;DHT22;11481;53.694;9.910;2022-08-25T08:26:22;21.50;99.90
22629;DHT22;11481;53.694;9.910;2022-08-25T08:29:09;21.60;99.90
22629;DHT22;11481;53.694;9.910;2022-08-25T08:31:35;21.70;99.90
22629;DHT22;11481;53.694;9.910;2022-08-25T08:34:02;21.70;99.90
22629;DHT22;11481;53.694;9.910;2022-08-25T08:36:29;21.80;99.90
22629;DHT22;11481;53.694;9.910;2022-08-25T08:38:57;21.80;99.90
22629;DHT22;11481;53.694;9.910;2022-08-25T08:44:47;21.80;99.90
22629;DHT22;11481;53.694;9.910;2022-08-25T08:53:31;22.00;99.90
22629;DHT22;11481;53.694;9.910;2022-08-25T08:56:07;22.10;99.90
22629;DHT22;11481;53.694;9.910;2022-08-25T08:58:52;22.20;99.90
22629;DHT22;11481;53.694;9.910;2022-08-25T09:01:27;22.20;99.90
22629;DHT22;11481;53.694;9.910;2022-08-25T09:04:10;22.20;99.90
22629;DHT22;11481;53.694;9.910;2022-08-25T09:06:44;22.30;99.90
22629;DHT22;11481;53.694;9.910;2022-08-25T09:09:26;22.40;99.90
22629;DHT22;11481;53.694;9.910;2022-08-25T09:12:19;22.50;99.90
22629;DHT22;11481;53.694;9.910;2022-08-25T09:15:06;22.60;99.90
22629;DHT22;11481;53.694;9.910;2022-08-25T09:26:02;22.70;99.90
22629;DHT22;11481;53.694;9.910;2022-08-25T09:28:49;22.80;99.90
22629;DHT22;11481;53.694;9.910;2022-08-25T09:31:24;22.90;99.90
22629;DHT22;11481;53.694;9.910;2022-08-25T09:33:56;22.90;99.90
22629;DHT22;11481;53.694;9.910;2022-08-25T09:36:23;22.90;99.90
22629;DHT22;11481;53.694;9.910;2022-08-25T09:38:51;23.00;99.90
22629;DHT22;11481;53.694;9.910;2022-08-25T09:41:45;23.20;99.90
22629;DHT22;11481;53.694;9.910;2022-08-25T09:44:41;23.30;99.90
22629;DHT22;11481;53.694;9.910;2022-08-25T09:47:26;23.30;99.90
22629;DHT22;11481;53.694;9.910;2022-08-25T09:50:01;23.40;99.90
22629;DHT22;11481;53.694;9.910;2022-08-25T09:52:39;23.50;99.90
22629;DHT22;11481;53.694;9.910;2022-08-25T10:03:07;23.90;99.90
22629;DHT22;11481;53.694;9.910;2022-08-25T10:06:03;24.10;99.90
22629;DHT22;11481;53.694;9.910;2022-08-25T10:08:58;24.40;99.90
22629;DHT22;11481;53.694;9.910;2022-08-25T10:11:44;24.60;99.90
22629;DHT22;11481;53.694;9.910;2022-08-25T10:16:43;24.90;99.90
22629;DHT22;11481;53.694;9.910;2022-08-25T10:19:27;24.90;99.90
22629;DHT22;11481;53.694;9.910;2022-08-25T10:22:11;24.90;99.90
22629;DHT22;11481;53.694;9.910;2022-08-25T10:24:45;25.00;99.90
22629;DHT22;11481;53.694;9.910;2022-08-25T10:27:35;25.10;99.90
22629;DHT22;11481;53.694;9.910;2022-08-25T10:30:23;25.30;99.90
22629;DHT22;11481;53.694;9.910;2022-08-25T10:35:44;25.70;99.90
22629;DHT22;11481;53.694;9.910;2022-08-25T10:46:44;26.30;99.90
22629;DHT22;11481;53.694;9.910;2022-08-25T10:49:22;26.30;99.90
22629;DHT22;11481;53.694;9.910;2022-08-25T10:52:02;26.40;99.90
22629;DHT22;11481;53.694;9.910;2022-08-25T10:54:51;26.50;99.90
22629;DHT22;11481;53.694;9.910;2022-08-25T10:57:42;26.70;99.90
22629;DHT22;11481;53.694;9.910;2022-08-25T11:00:19;26.80;99.90
22629;DHT22;11481;53.694;9.910;2022-08-25T11:05:31;27.20;99.90
22629;DHT22;11481;53.694;9.910;2022-08-25T11:13:54;27.10;99.90
22629;DHT22;11481;53.694;9.910;2022-08-25T11:19:06;27.00;99.90
22629;DHT22;11481;53.694;9.910;2022-08-25T11:27:30;27.20;99.90
22629;DHT22;11481;53.694;9.910;2022-08-25T11:30:05;27.10;99.90
22629;DHT22;11481;53.694;9.910;2022-08-25T11:32:37;27.20;99.90
22629;DHT22;11481;53.694;9.910;2022-08-25T11:35:10;27.20;99.90
22629;DHT22;11481;53.694;9.910;2022-08-25T11:37:57;27.30;99.90
22629;DHT22;11481;53.694;9.910;2022-08-25T11:51:45;28.20;99.90
22629;DHT22;11481;53.694;9.910;2022-08-25T11:57:01;28.60;99.90
22629;DHT22;11481;53.694;9.910;2022-08-25T12:02:37;28.90;99.90
22629;DHT22;11481;53.694;9.910;2022-08-25T12:10:55;29.10;99.90
22629;DHT22;11481;53.694;9.910;2022-08-25T12:13:45;29.40;99.90
22629;DHT22;11481;53.694;9.910;2022-08-25T12:16:41;29.70;99.90
22629;DHT22;11481;53.694;9.910;2022-08-25T12:30:22;30.00;99.90
22629;DHT22;11481;53.694;9.910;2022-08-25T12:33:09;29.90;99.90
22629;DHT22;11481;53.694;9.910;2022-08-25T12:35:58;30.10;99.90
22629;DHT22;11481;53.694;9.910;2022-08-25T12:38:46;30.10;99.90
22629;DHT22;11481;53.694;9.910;2022-08-25T12:41:27;30.10;99.90
22629;DHT22;11481;53.694;9.910;2022-08-25T12:44:37;30.10;99.90
22629;DHT22;11481;53.694;9.910;2022-08-25T12:47:12;30.40;99.90
22629;DHT22;11481;53.694;9.910;2022-08-25T12:49:39;30.40;99.90
22629;DHT22;11481;53.694;9.910;2022-08-25T12:52:13;30.30;99.90
22629;DHT22;11481;53.694;9.910;2022-08-25T12:54:55;30.20;99.90
22629;DHT22;11481;53.694;9.910;2022-08-25T12:57:49;30.30;99.90
22629;DHT22;11481;53.694;9.910;2022-08-25T13:00:28;30.10;99.90
22629;DHT22;11481;53.694;9.910;2022-08-25T13:11:43;30.50;99.90
22629;DHT22;11481;53.694;9.910;2022-08-25T13:14:39;30.50;99.90
22629;DHT22;11481;53.694;9.910;2022-08-25T13:17:07;30.30;99.90
22629;DHT22;11481;53.694;9.910;2022-08-25T13:19:36;30.40;99.90
22629;DHT22;11481;53.694;9.910;2022-08-25T13:22:12;30.60;99.90
22629;DHT22;11481;53.694;9.910;2022-08-25T13:24:43;30.70;99.90
22629;DHT22;11481;53.694;9.910;2022-08-25T13:27:21;31.00;99.90
22629;DHT22;11481;53.694;9.910;2022-08-25T13:29:53;30.90;99.90
22629;DHT22;11481;53.694;9.910;2022-08-25T13:32:30;30.90;99.90
22629;DHT22;11481;53.694;9.910;2022-08-25T13:35:19;31.00;99.90
22629;DHT22;11481;53.694;9.910;2022-08-25T13:37:46;31.10;99.90
22629;DHT22;11481;53.694;9.910;2022-08-25T13:42:58;31.40;99.90
22629;DHT22;11481;53.694;9.910;2022-08-25T13:45:30;31.60;99.90
22629;DHT22;11481;53.694;9.910;2022-08-25T13:48:11;31.80;99.90
22629;DHT22;11481;53.694;9.910;2022-08-25T13:50:48;31.90;99.90
22629;DHT22;11481;53.694;9.910;2022-08-25T13:53:23;32.00;99.90
22629;DHT22;11481;53.694;9.910;2022-08-25T13:58:27;31.90;99.90
22629;DHT22;11481;53.694;9.910;2022-08-25T14:01:12;32.00;99.90
22629;DHT22;11481;53.694;9.910;2022-08-25T14:06:46;31.70;99.90
22629;DHT22;11481;53.694;9.910;2022-08-25T14:09:17;31.90;99.90
22629;DHT22;11481;53.694;9.910;2022-08-25T14:11:58;31.80;99.90
22629;DHT22;11481;53.694;9.910;2022-08-25T14:16:57;32.30;99.90
22629;DHT22;11481;53.694;9.910;2022-08-25T14:19:28;32.50;99.90
22629;DHT22;11481;53.694;9.910;2022-08-25T14:21:56;32.50;99.90
22629;DHT22;11481;53.694;9.910;2022-08-25T14:24:33;32.30;99.90
22629;DHT22;11481;53.694;9.910;2022-08-25T14:27:06;32.10;99.90
22629;DHT22;11481;53.694;9.910;2022-08-25T14:29:37;32.10;99.90
22629;DHT22;11481;53.694;9.910;2022-08-25T14:32:06;32.00;99.90
22629;DHT22;11481;53.694;9.910;2022-08-25T14:34:36;32.00;99.90
22629;DHT22;11481;53.694;9.910;2022-08-25T14:37:17;32.30;99.90
22629;DHT22;11481;53.694;9.910;2022-08-25T14:39:45;32.40;99.90
22629;DHT22;11481;53.694;9.910;2022-08-25T14:42:13;32.30;99.90
22629;DHT22;11481;53.694;9.910;2022-08-25T14:44:39;32.30;99.90
22629;DHT22;11481;53.694;9.910;2022-08-25T14:47:06;32.40;99.90
22629;DHT22;11481;53.694;9.910;2022-08-25T14:49:39;32.50;99.90
22629;DHT22;11481;53.694;9.910;2022-08-25T14:52:19;32.60;99.90
22629;DHT22;11481;53.694;9.910;2022-08-25T14:54:48;33.00;99.90
22629;DHT22;11481;53.694;9.910;2022-08-25T14:57:15;33.20;99.90
22629;DHT22;11481;53.694;9.910;2022-08-25T14:59:46;33.20;99.90
22629;DHT22;11481;53.694;9.910;2022-08-25T15:02:15;33.10;99.90
22629;DHT22;11481;53.694;9.910;2022-08-25T15:04:54;33.00;99.90
22629;DHT22;11481;53.694;9.910;2022-08-25T15:07:22;32.70;99.90
22629;DHT22;11481;53.694;9.910;2022-08-25T15:10:08;32.60;99.90
22629;DHT22;11481;53.694;9.910;2022-08-25T15:12:39;32.50;99.90
22629;DHT22;11481;53.694;9.910;2022-08-25T15:15:13;32.50;99.90
22629;DHT22;11481;53.694;9.910;2022-08-25T15:17:40;32.40;99.90
22629;DHT22;11481;53.694;9.910;2022-08-25T15:20:10;32.30;99.90
22629;DHT22;11481;53.694;9.910;2022-08-25T15:22:37;32.30;99.90
22629;DHT22;11481;53.694;9.910;2022-08-25T15:25:04;32.50;99.90
22629;DHT22;11481;53.694;9.910;2022-08-25T15:27:33;32.60;99.90
22629;DHT22;11481;53.694;9.910;2022-08-25T15:29:59;32.70;99.90
22629;DHT22;11481;53.694;9.910;2022-08-25T15:32:26;32.70;99.90
22629;DHT22;11481;53.694;9.910;2022-08-25T15:34:53;32.80;99.90
22629;DHT22;11481;53.694;9.910;2022-08-25T15:37:20;32.80;99.90
22629;DHT22;11481;53.694;9.910;2022-08-25T15:39:46;32.60;99.90
22629;DHT22;11481;53.694;9.910;2022-08-25T15:42:14;32.40;99.90
22629;DHT22;11481;53.694;9.910;2022-08-25T15:44:43;32.50;99.90
22629;DHT22;11481;53.694;9.910;2022-08-25T15:47:20;32.50;99.90
22629;DHT22;11481;53.694;9.910;2022-08-25T15:49:47;32.60;99.90
22629;DHT22;11481;53.694;9.910;2022-08-25T15:52:14;32.70;99.90
22629;DHT22;11481;53.694;9.910;2022-08-25T15:54:40;32.70;99.90
22629;DHT22;11481;53.694;9.910;2022-08-25T15:57:10;32.80;99.90
22629;DHT22;11481;53.694;9.910;2022-08-25T15:59:50;33.00;99.90
22629;DHT22;11481;53.694;9.910;2022-08-25T16:02:19;33.00;99.90
22629;DHT22;11481;53.694;9.910;2022-08-25T16:04:46;33.10;99.90
22629;DHT22;11481;53.694;9.910;2022-08-25T16:07:13;33.20;99.90
22629;DHT22;11481;53.694;9.910;2022-08-25T16:09:40;33.40;99.90
22629;DHT22;11481;53.694;9.910;2022-08-25T16:12:07;33.70;99.90
22629;DHT22;11481;53.694;9.910;2022-08-25T16:14:34;33.70;99.90
22629;DHT22;11481;53.694;9.910;2022-08-25T16:17:01;33.90;99.90
22629;DHT22;11481;53.694;9.910;2022-08-25T16:19:28;33.90;99.90
22629;DHT22;11481;53.694;9.910;2022-08-25T16:21:55;34.00;99.90
22629;DHT22;11481;53.694;9.910;2022-08-25T16:24:21;34.10;99.90
22629;DHT22;11481;53.694;9.910;2022-08-25T16:26:48;34.10;99.90
22629;DHT22;11481;53.694;9.910;2022-08-25T16:29:17;34.20;99.90
22629;DHT22;11481;53.694;9.910;2022-08-25T16:31:46;34.30;99.90
22629;DHT22;11481;53.694;9.910;2022-08-25T16:34:20;34.60;99.90
22629;DHT22;11481;53.694;9.910;2022-08-25T16:36:50;34.70;99.90
22629;DHT22;11481;53.694;9.910;2022-08-25T16:39:18;34.70;99.90
22629;DHT22;11481;53.694;9.910;2022-08-25T16:41:46;34.80;99.90
22629;DHT22;11481;53.694;9.910;2022-08-25T16:44:13;34.70;99.90
22629;DHT22;11481;53.694;9.910;2022-08-25T16:46:39;34.50;99.90
22629;DHT22;11481;53.694;9.910;2022-08-25T16:49:11;34.30;99.90
22629;DHT22;11481;53.694;9.910;2022-08-25T16:51:41;33.40;99.90
22629;DHT22;11481;53.694;9.910;2022-08-25T16:54:10;33.10;99.90
22629;DHT22;11481;53.694;9.910;2022-08-25T16:56:56;33.20;99.90
22629;DHT22;11481;53.694;9.910;2022-08-25T16:59:24;33.40;99.90
22629;DHT22;11481;53.694;9.910;2022-08-25T17:01:51;33.60;99.90
22629;DHT22;11481;53.694;9.910;2022-08-25T17:04:19;33.50;99.90
22629;DHT22;11481;53.694;9.910;2022-08-25T17:06:57;33.50;99.90
22629;DHT22;11481;53.694;9.910;2022-08-25T17:09:24;33.50;99.90
22629;DHT22;11481;53.694;9.910;2022-08-25T17:11:50;33.70;99.90
22629;DHT22;11481;53.694;9.910;2022-08-25T17:14:21;33.70;99.90
22629;DHT22;11481;53.694;9.910;2022-08-25T17:16:51;33.90;99.90
22629;DHT22;11481;53.694;9.910;2022-08-25T17:19:21;33.60;99.90
22629;DHT22;11481;53.694;9.910;2022-08-25T17:21:51;33.10;99.90
22629;DHT22;11481;53.694;9.910;2022-08-25T17:24:21;32.80;99.90
22629;DHT22;11481;53.694;9.910;2022-08-25T17:26:55;32.70;99.90
22629;DHT22;11481;53.694;9.910;2022-08-25T17:29:21;32.80;99.90
22629;DHT22;11481;53.694;9.910;2022-08-25T17:31:48;32.80;99.90
22629;DHT22;11481;53.694;9.910;2022-08-25T17:34:17;32.40;99.90
22629;DHT22;11481;53.694;9.910;2022-08-25T17:36:49;32.00;99.90
22629;DHT22;11481;53.694;9.910;2022-08-25T17:39:18;32.20;99.90
22629;DHT22;11481;53.694;9.910;2022-08-25T17:41:48;32.60;99.90
22629;DHT22;11481;53.694;9.910;2022-08-25T17:44:16;32.40;99.90
22629;DHT22;11481;53.694;9.910;2022-08-25T17:46:43;32.30;99.90
22629;DHT22;11481;53.694;9.910;2022-08-25T17:49:16;32.50;99.90
22629;DHT22;11481;53.694;9.910;2022-08-25T17:51:43;32.70;99.90